CheckWX is a tool to help pilots better visualize weather data.  It is not intended as a substitute for an official pre-flight weather briefing.

01:44:33 UTC

KSNL METAR
Shawnee Regional Airport
Shawnee, Oklahoma, USA
Current

30 mins ago

KSNL 240115Z AUTO 30020G25KT 10SM BKN036 05/M02 A2992 RMK AO2 T00481017
Observed
Feb-24 @ 01:15 UTC
Wind
  • 300° at 20 KTS
  • Gusting to 25 KTS
Visibility
10 SM
Flight Rules
VFR
Cloud Levels
  • Broken at 3,600' AGL
Temperature
C / 41°F
Dewpoint
-2°C / 28°F
Humidity
61%
Altimeter
29.92" Hg
Pressure
1013.22 hPa
Previous

50 mins ago

KSNL 240055Z AUTO 30016G30KT 10SM SCT034 05/M02 A2990 RMK AO2 T00481020
Observed
Feb-24 @ 00:55 UTC
Wind
  • 300° at 16 KTS
  • Gusting to 30 KTS
Visibility
10 SM
Flight Rules
VFR
Cloud Levels
  • Scattered at 3,400' AGL
Temperature
C / 41°F
Dewpoint
-2°C / 28°F
Humidity
61%
Altimeter
29.9" Hg
Pressure
1012.52 hPa
Previous

1 hour ago

KSNL 240035Z AUTO 29021G32KT 10SM SCT034 05/M01 A2987 RMK AO2 T00521013
Observed
Feb-24 @ 00:35 UTC
Wind
  • 290° at 21 KTS
  • Gusting to 32 KTS
Visibility
10 SM
Flight Rules
VFR
Cloud Levels
  • Scattered at 3,400' AGL
Temperature
C / 41°F
Dewpoint
-1°C / 30°F
Humidity
66%
Altimeter
29.87" Hg
Pressure
1011.52 hPa